Time;durP1;ratioP1;P1;durP2;ratioP2;P2;SDS_P1;SDS_P2;PMS_P1;PMS_P2;Temp;Humidity;BMP_temperature;BMP_pressure;BME280_temperature;BME280_humidity;BME280_pressure;Samples;Min_cycle;Max_cycle;Signal;HPM_P1;HPM_P2
2023/09/24 00:01:02;;;;;;;11.35;10.25;;;;;;;16.97;77.03;99111.28;4359746;32;33301;-87
2023/09/24 00:03:31;;;;;;;11.55;10.35;;;;;;;17.00;77.38;99105.97;4347818;32;33114;-87
2023/09/24 00:06:05;;;;;;;11.60;10.40;;;;;;;16.95;77.71;99106.94;4342645;33;34223;-85
2023/09/24 00:08:34;;;;;;;10.73;9.63;;;;;;;17.07;77.06;99098.91;4344798;33;33920;-87
2023/09/24 00:11:02;;;;;;;14.15;11.05;;;;;;;17.20;75.69;99103.09;4343456;33;34517;-85
2023/09/24 00:13:34;;;;;;;13.35;10.63;;;;;;;16.71;78.77;99113.34;4370167;32;33868;-86
2023/09/24 00:16:09;;;;;;;12.32;10.27;;;;;;;16.81;77.54;99114.97;4358234;32;33897;-87
2023/09/24 00:18:37;;;;;;;12.40;11.18;;;;;;;16.82;77.95;99098.41;4358207;32;34856;-87
2023/09/24 00:21:06;;;;;;;12.37;11.07;;;;;;;16.80;78.35;99087.06;4361093;32;33429;-86
2023/09/24 00:23:34;;;;;;;12.07;10.88;;;;;;;16.46;79.62;99084.84;4349648;32;33811;-87
2023/09/24 00:26:02;;;;;;;11.93;10.68;;;;;;;16.86;77.39;99096.56;4346453;33;34721;-87
2023/09/24 00:28:30;;;;;;;11.52;10.32;;;;;;;17.20;75.56;99102.22;4344959;33;32650;-86
2023/09/24 00:31:00;;;;;;;11.65;9.90;;;;;;;16.96;76.63;99106.03;4370042;32;34309;-86
2023/09/24 00:33:29;;;;;;;10.10;9.10;;;;;;;16.81;76.92;99104.50;4345485;32;34055;-87
2023/09/24 00:35:59;;;;;;;12.93;9.77;;;;;;;17.11;75.75;99105.81;4345306;33;32851;-87
2023/09/24 00:38:26;;;;;;;9.30;8.35;;;;;;;17.19;75.11;99110.94;4346482;33;34126;-86
2023/09/24 00:40:54;;;;;;;10.52;8.57;;;;;;;17.13;74.45;99126.78;4346368;33;33523;-86
2023/09/24 00:43:33;;;;;;;11.02;8.40;;;;;;;17.35;73.45;99132.53;4346893;32;33626;-86
2023/09/24 00:46:07;;;;;;;9.25;8.23;;;;;;;17.36;73.45;99129.91;4357286;32;33385;-86
2023/09/24 00:48:35;;;;;;;8.25;7.45;;;;;;;17.77;71.91;99125.81;4357672;32;34023;-86
2023/09/24 00:51:15;;;;;;;9.43;7.93;;;;;;;17.03;74.23;99139.97;4346443;33;33358;-87
2023/09/24 00:53:43;;;;;;;10.00;8.90;;;;;;;16.93;75.83;99129.66;4356312;32;33715;-87
2023/09/24 00:56:11;;;;;;;10.02;9.02;;;;;;;16.41;78.14;99114.59;4360104;32;35004;-85
2023/09/24 00:58:39;;;;;;;10.20;9.20;;;;;;;16.46;78.31;99118.88;4372273;32;34008;-86
2023/09/24 01:01:07;;;;;;;13.32;8.57;;;;;;;16.38;78.32;99118.09;4360830;32;33335;-87
2023/09/24 01:03:39;;;;;;;10.57;9.48;;;;;;;16.17;78.81;99126.16;4347167;32;33106;-87
2023/09/24 01:06:08;;;;;;;10.45;9.13;;;;;;;16.29;78.35;99115.59;4359595;32;34695;-86
2023/09/24 01:08:36;;;;;;;8.98;8.07;;;;;;;16.47;77.69;99122.34;4361101;32;34186;-87
2023/09/24 01:11:05;;;;;;;9.60;8.60;;;;;;;16.59;76.63;99113.47;4360937;32;33692;-86
2023/09/24 01:13:42;;;;;;;10.13;8.50;;;;;;;16.36;77.77;99111.13;4349305;32;33934;-86
2023/09/24 01:16:10;;;;;;;9.95;8.60;;;;;;;16.51;76.79;99105.72;4360866;32;34997;-87
2023/09/24 01:18:39;;;;;;;11.00;9.90;;;;;;;16.29;78.04;99105.12;4359851;32;33515;-87
2023/09/24 01:21:12;;;;;;;11.63;8.65;;;;;;;15.95;79.84;99107.25;4359215;32;33451;-85
2023/09/24 01:23:42;;;;;;;9.13;8.20;;;;;;;16.59;76.70;99116.97;4357626;32;33438;-86
2023/09/24 01:26:11;;;;;;;10.18;8.40;;;;;;;16.53;76.85;99114.44;4344921;33;32867;-86
2023/09/24 01:28:39;;;;;;;10.13;8.90;;;;;;;16.82;75.89;99116.72;4359168;32;32463;-86
2023/09/24 01:31:08;;;;;;;9.27;8.27;;;;;;;16.57;76.97;99115.28;4347115;32;33530;-87
2023/09/24 01:33:42;;;;;;;11.00;9.05;;;;;;;16.47;77.54;99124.97;4344964;32;33364;-86
2023/09/24 01:36:10;;;;;;;10.90;8.75;;;;;;;16.53;77.26;99136.22;4344955;33;34040;-86
2023/09/24 01:38:41;;;;;;;9.70;8.40;;;;;;;16.78;76.24;99139.47;4353543;32;32981;-86
2023/09/24 01:41:10;;;;;;;10.98;7.93;;;;;;;16.90;75.69;99141.06;4359459;32;33295;-87
2023/09/24 01:43:42;;;;;;;11.27;8.65;;;;;;;16.43;76.99;99139.84;4371859;32;34253;-87
2023/09/24 01:46:13;;;;;;;9.23;8.20;;;;;;;16.28;78.38;99132.16;4347541;32;34966;-87
2023/09/24 01:48:43;;;;;;;10.82;9.77;;;;;;;16.41;77.80;99131.16;4350098;32;33417;-86
2023/09/24 01:51:11;;;;;;;9.77;8.77;;;;;;;16.30;78.77;99122.56;4345777;32;34404;-85
2023/09/24 01:53:40;;;;;;;10.15;9.02;;;;;;;16.82;76.38;99111.50;4356675;32;33810;-87
2023/09/24 01:56:08;;;;;;;9.40;8.40;;;;;;;16.79;76.36;99129.84;4344795;32;35166;-87
2023/09/24 01:58:39;;;;;;;9.90;8.40;;;;;;;16.68;76.62;99129.09;4346207;33;34002;-87
2023/09/24 02:01:07;;;;;;;10.40;9.30;;;;;;;16.77;76.10;99134.22;4345968;33;33640;-87
2023/09/24 02:03:36;;;;;;;9.68;8.32;;;;;;;16.68;76.68;99123.84;4345970;33;33930;-86
2023/09/24 02:06:05;;;;;;;9.30;8.40;;;;;;;16.46;77.65;99126.72;4370895;32;33327;-87
2023/09/24 02:08:33;;;;;;;13.80;9.10;;;;;;;16.54;77.53;99122.25;4359280;32;32114;-87
2023/09/24 02:11:01;;;;;;;9.57;8.38;;;;;;;16.56;77.29;99124.87;4360966;32;33689;-87
2023/09/24 02:13:29;;;;;;;9.90;8.90;;;;;;;16.77;76.02;99129.00;4359194;32;33909;-87
2023/09/24 02:15:59;;;;;;;10.20;8.52;;;;;;;16.48;76.84;99126.72;4346159;32;33970;-86
2023/09/24 02:18:32;;;;;;;10.20;8.95;;;;;;;16.26;78.16;99139.16;4369020;32;34982;-87
2023/09/24 02:21:00;;;;;;;9.57;8.35;;;;;;;16.51;76.91;99124.91;4344602;33;32283;-87
2023/09/24 02:23:28;;;;;;;10.95;8.82;;;;;;;16.51;76.97;99117.06;4346038;33;33553;-87
2023/09/24 02:25:56;;;;;;;10.57;8.73;;;;;;;16.77;76.36;99110.66;4346531;32;34628;-86
2023/09/24 02:28:24;;;;;;;9.43;8.25;;;;;;;16.89;75.51;99099.16;4359025;32;33329;-87
2023/09/24 02:30:53;;;;;;;10.45;8.15;;;;;;;17.02;75.51;99104.22;4347039;32;33874;-86
2023/09/24 02:33:22;;;;;;;9.35;8.30;;;;;;;17.21;74.87;99101.31;4347056;32;32780;-87
2023/09/24 02:35:50;;;;;;;11.77;9.00;;;;;;;17.11;75.29;99105.81;4360289;32;34591;-87
2023/09/24 02:38:18;;;;;;;10.57;8.68;;;;;;;17.39;74.24;99103.66;4371612;32;34071;-87
2023/09/24 02:40:46;;;;;;;10.40;8.50;;;;;;;17.00;75.51;99111.22;4360417;32;33784;-87
2023/09/24 02:43:14;;;;;;;10.77;9.23;;;;;;;16.99;75.55;99119.97;4357500;32;33564;-87
2023/09/24 02:45:42;;;;;;;10.68;9.57;;;;;;;16.67;76.68;99127.38;4360351;32;34157;-87
2023/09/24 02:48:10;;;;;;;12.43;10.20;;;;;;;16.48;77.50;99130.19;4346784;32;33606;-87
2023/09/24 02:50:39;;;;;;;11.65;9.70;;;;;;;16.52;77.54;99126.66;4359307;32;32934;-87
2023/09/24 02:53:07;;;;;;;10.82;9.57;;;;;;;16.74;77.02;99132.53;4351406;32;34084;-87
2023/09/24 02:55:36;;;;;;;11.65;10.50;;;;;;;16.82;76.52;99134.16;4354627;32;33618;-87
2023/09/24 02:58:04;;;;;;;11.43;10.27;;;;;;;16.57;78.02;99125.75;4359013;32;34214;-87
2023/09/24 03:00:35;;;;;;;11.10;9.48;;;;;;;16.89;76.45;99128.81;4352554;32;33777;-87
2023/09/24 03:03:04;;;;;;;11.35;10.13;;;;;;;16.99;75.19;99121.72;4344212;33;32883;-87
2023/09/24 03:05:33;;;;;;;11.38;10.00;;;;;;;16.83;76.54;99112.34;4344323;33;34190;-87
2023/09/24 03:08:02;;;;;;;14.43;10.02;;;;;;;16.41;78.41;99098.88;4344638;33;33821;-88
2023/09/24 03:10:31;;;;;;;10.80;9.65;;;;;;;16.90;76.05;99083.44;4350463;32;34538;-86
2023/09/24 03:12:59;;;;;;;12.57;10.10;;;;;;;16.92;75.71;99086.87;4358751;32;33923;-87
2023/09/24 03:15:27;;;;;;;11.65;10.45;;;;;;;16.67;77.27;99077.63;4360238;32;33977;-87
2023/09/24 03:17:55;;;;;;;12.60;10.13;;;;;;;16.58;77.67;99070.75;4359993;32;34072;-88
2023/09/24 03:20:24;;;;;;;11.30;10.07;;;;;;;16.30;79.09;99065.00;4352601;32;33664;-87
2023/09/24 03:22:54;;;;;;;11.85;10.27;;;;;;;16.40;78.80;99071.87;4345277;33;34855;-87
2023/09/24 03:25:27;;;;;;;13.40;10.43;;;;;;;16.63;77.39;99068.06;4345344;33;34259;-87
2023/09/24 03:27:57;;;;;;;11.82;10.63;;;;;;;16.56;77.89;99071.66;4344042;33;34279;-87
2023/09/24 03:30:25;;;;;;;13.32;11.25;;;;;;;15.96;80.83;99080.22;4370796;32;32563;-88
2023/09/24 03:32:54;;;;;;;13.73;11.50;;;;;;;15.99;81.27;99086.28;4346720;32;32434;-88
2023/09/24 03:35:25;;;;;;;12.37;11.07;;;;;;;16.04;81.13;99091.44;4360066;32;34978;-87
2023/09/24 03:37:55;;;;;;;13.18;11.85;;;;;;;15.86;81.76;99091.63;4358636;32;34219;-88
2023/09/24 03:40:24;;;;;;;15.70;11.55;;;;;;;16.12;81.04;99107.91;4352465;32;34574;-87
2023/09/24 03:42:51;;;;;;;12.65;11.35;;;;;;;16.42;79.41;99104.09;4354435;32;33776;-88
2023/09/24 03:45:20;;;;;;;13.50;11.38;;;;;;;16.48;79.31;99106.66;4358636;32;34067;-87
2023/09/24 03:47:48;;;;;;;12.30;11.00;;;;;;;16.60;78.54;99096.91;4358693;32;33729;-87
2023/09/24 03:50:17;;;;;;;14.50;12.65;;;;;;;16.46;79.20;99091.84;4357555;32;33495;-87
2023/09/24 03:52:47;;;;;;;14.93;13.07;;;;;;;16.24;80.57;99118.25;4360225;32;34023;-87
2023/09/24 03:55:21;;;;;;;13.68;11.57;;;;;;;16.37;80.36;99113.75;4360567;32;33818;-87
2023/09/24 03:57:49;;;;;;;13.10;11.73;;;;;;;16.51;79.45;99109.19;4348599;32;34651;-87
2023/09/24 04:00:21;;;;;;;14.05;12.07;;;;;;;16.50;79.43;99107.47;4360103;32;34514;-86
2023/09/24 04:02:50;;;;;;;15.00;12.95;;;;;;;16.19;81.13;99116.56;4360232;32;33332;-86
2023/09/24 04:05:21;;;;;;;14.68;13.18;;;;;;;16.33;80.56;99111.16;4360699;32;33816;-86
2023/09/24 04:07:53;;;;;;;14.75;12.77;;;;;;;16.18;81.20;99101.78;4360308;32;32869;-88
2023/09/24 04:10:23;;;;;;;14.07;12.18;;;;;;;16.38;80.39;99105.00;4359219;32;33027;-87
2023/09/24 04:12:50;;;;;;;17.98;13.43;;;;;;;16.05;82.29;99108.87;4361761;32;34037;-86
2023/09/24 04:15:21;;;;;;;15.55;13.70;;;;;;;16.11;82.36;99123.63;4361652;32;34093;-87
2023/09/24 04:17:50;;;;;;;13.62;12.23;;;;;;;16.26;81.98;99123.47;4359856;32;34326;-86
2023/09/24 04:20:20;;;;;;;15.85;12.32;;;;;;;16.33;81.39;99135.62;4361729;32;33493;-85
2023/09/24 04:22:49;;;;;;;13.82;12.45;;;;;;;16.09;82.54;99128.00;4361597;32;33640;-86
2023/09/24 04:25:20;;;;;;;14.30;12.82;;;;;;;15.91;83.80;99123.81;4361525;32;34023;-85
2023/09/24 04:27:48;;;;;;;15.80;13.38;;;;;;;16.04;83.57;99125.44;4359509;32;34745;-86
2023/09/24 04:30:19;;;;;;;16.37;13.52;;;;;;;16.10;83.26;99130.63;4360204;32;34593;-86
2023/09/24 04:32:53;;;;;;;15.05;13.45;;;;;;;16.01;83.56;99128.94;4361387;32;33816;-86
2023/09/24 04:35:21;;;;;;;14.60;12.00;;;;;;;16.00;83.81;99135.06;4361357;32;34159;-86
2023/09/24 04:37:51;;;;;;;14.65;12.93;;;;;;;15.82;85.41;99145.69;4352229;32;33959;-86
2023/09/24 04:40:18;;;;;;;13.93;12.25;;;;;;;16.47;81.23;99138.91;4345286;33;33334;-87
2023/09/24 04:42:50;;;;;;;14.73;13.15;;;;;;;16.41;81.49;99136.38;4346492;33;33861;-86
2023/09/24 04:45:18;;;;;;;14.02;12.73;;;;;;;16.38;81.99;99143.41;4366718;32;34176;-84
2023/09/24 04:47:48;;;;;;;16.52;13.32;;;;;;;16.44;81.62;99152.06;4359937;32;33797;-85
2023/09/24 04:50:17;;;;;;;14.80;11.65;;;;;;;16.34;82.36;99144.31;4361030;32;33426;-84
2023/09/24 04:52:47;;;;;;;14.13;11.90;;;;;;;16.38;82.20;99141.66;4359722;32;34557;-85
2023/09/24 04:55:15;;;;;;;14.87;13.27;;;;;;;16.51;81.82;99139.75;4351638;32;34546;-86
2023/09/24 04:57:45;;;;;;;13.95;12.30;;;;;;;16.60;81.37;99141.41;4332717;33;33639;-85
2023/09/24 05:00:15;;;;;;;14.48;12.32;;;;;;;16.69;81.12;99141.28;4345139;33;33133;-85
2023/09/24 05:02:43;;;;;;;13.25;11.27;;;;;;;16.70;80.84;99138.63;4346385;33;34589;-87
2023/09/24 05:05:11;;;;;;;13.55;11.43;;;;;;;16.76;80.45;99133.38;4354029;32;33931;-86
2023/09/24 05:07:39;;;;;;;13.43;11.80;;;;;;;16.43;82.63;99131.97;4347557;32;33343;-86
2023/09/24 05:10:08;;;;;;;14.93;11.95;;;;;;;16.67;81.44;99127.38;4361099;32;34439;-86
2023/09/24 05:12:36;;;;;;;12.82;11.50;;;;;;;16.49;82.54;99129.31;4361032;32;33532;-86
2023/09/24 05:15:04;;;;;;;12.57;10.52;;;;;;;16.38;83.53;99136.41;4358797;32;34385;-83
2023/09/24 05:17:33;;;;;;;11.43;10.23;;;;;;;16.50;82.52;99141.50;4361089;32;33898;-83
2023/09/24 05:20:02;;;;;;;13.13;11.73;;;;;;;16.60;81.94;99141.41;4359590;32;33634;-84
2023/09/24 05:22:30;;;;;;;12.90;11.48;;;;;;;16.40;82.93;99144.22;4359431;32;34435;-83
2023/09/24 05:24:58;;;;;;;10.85;9.40;;;;;;;16.65;82.09;99142.22;4358445;32;33982;-84
2023/09/24 05:27:30;;;;;;;10.65;9.40;;;;;;;16.74;81.64;99144.72;4346626;32;34080;-82
2023/09/24 05:29:58;;;;;;;11.32;10.20;;;;;;;16.94;80.56;99145.38;4348208;32;33858;-83
2023/09/24 05:32:25;;;;;;;10.30;8.75;;;;;;;16.77;81.55;99152.56;4360466;32;33555;-83
2023/09/24 05:34:54;;;;;;;11.43;9.18;;;;;;;17.01;80.37;99152.25;4360997;32;33670;-83
2023/09/24 05:37:22;;;;;;;10.18;9.18;;;;;;;16.45;83.01;99164.25;4360977;32;34964;-82
2023/09/24 05:39:49;;;;;;;12.18;8.32;;;;;;;16.69;82.13;99162.22;4360139;32;33715;-82
2023/09/24 05:42:17;;;;;;;9.85;8.60;;;;;;;16.88;81.03;99160.28;4346123;32;34713;-84
2023/09/24 05:44:45;;;;;;;8.80;7.90;;;;;;;17.00;80.72;99165.34;4346354;33;33444;-83
2023/09/24 05:47:12;;;;;;;9.00;7.47;;;;;;;17.38;78.12;99158.69;4345856;33;34038;-83
2023/09/24 05:49:40;;;;;;;9.07;8.18;;;;;;;17.14;79.85;99160.78;4355986;32;33692;-83
2023/09/24 05:52:07;;;;;;;10.02;8.85;;;;;;;17.00;80.85;99171.44;4359156;32;34777;-83
2023/09/24 05:54:36;;;;;;;9.50;8.07;;;;;;;17.14;80.21;99180.91;4348891;32;33446;-84
2023/09/24 05:57:03;;;;;;;9.80;7.50;;;;;;;17.34;79.30;99173.59;4360874;32;33663;-84
2023/09/24 05:59:31;;;;;;;8.00;6.75;;;;;;;17.36;79.02;99177.09;4360838;32;34398;-83
2023/09/24 06:01:59;;;;;;;9.60;6.45;;;;;;;17.33;79.18;99187.59;4360615;32;33970;-83
2023/09/24 06:04:30;;;;;;;9.48;6.70;;;;;;;17.54;78.48;99193.41;4357235;32;33779;-83
2023/09/24 06:06:58;;;;;;;8.00;5.93;;;;;;;17.59;78.40;99196.84;4344603;32;34307;-83
2023/09/24 06:09:28;;;;;;;7.25;6.20;;;;;;;17.48;78.68;99210.09;4345855;33;33544;-83
2023/09/24 06:11:56;;;;;;;7.45;6.43;;;;;;;17.30;79.41;99199.88;4344784;33;33469;-83
2023/09/24 06:14:24;;;;;;;7.25;5.90;;;;;;;17.31;80.14;99202.47;4348495;32;33903;-83
2023/09/24 06:16:51;;;;;;;6.60;4.90;;;;;;;17.33;79.73;99213.81;4359253;32;33796;-84
2023/09/24 06:19:19;;;;;;;6.28;5.25;;;;;;;17.54;78.83;99217.91;4360576;32;34278;-84
2023/09/24 06:21:50;;;;;;;6.35;4.60;;;;;;;17.79;78.25;99210.53;4360660;32;34419;-84
2023/09/24 06:24:19;;;;;;;5.72;4.72;;;;;;;17.75;77.93;99212.34;4358487;32;33384;-84
2023/09/24 06:26:48;;;;;;;7.20;5.72;;;;;;;17.67;78.56;99214.19;4344746;33;33859;-83
2023/09/24 06:29:15;;;;;;;7.68;5.30;;;;;;;17.83;77.63;99206.13;4346022;33;33646;-84
2023/09/24 06:31:43;;;;;;;6.18;4.55;;;;;;;17.94;77.58;99202.41;4345902;33;33996;-84
2023/09/24 06:34:11;;;;;;;5.15;4.45;;;;;;;18.08;77.44;99214.47;4346861;32;34195;-83
2023/09/24 06:36:39;;;;;;;6.60;4.45;;;;;;;17.89;78.20;99214.75;4360497;32;34226;-83
2023/09/24 06:39:13;;;;;;;6.03;4.57;;;;;;;18.08;77.68;99219.69;4360795;32;33203;-84
2023/09/24 06:41:42;;;;;;;5.85;4.47;;;;;;;18.22;77.13;99222.94;4360617;32;33877;-83
2023/09/24 06:44:10;;;;;;;5.43;4.07;;;;;;;18.09;77.46;99213.56;4359215;32;34303;-83
2023/09/24 06:46:38;;;;;;;6.55;4.75;;;;;;;18.14;77.41;99236.19;4345474;33;34505;-83
2023/09/24 06:49:06;;;;;;;6.37;4.85;;;;;;;18.27;77.27;99236.84;4345568;33;33413;-83
2023/09/24 06:51:33;;;;;;;6.35;4.97;;;;;;;18.29;77.33;99239.44;4347984;32;33531;-83
2023/09/24 06:54:01;;;;;;;6.50;5.40;;;;;;;18.44;76.74;99240.03;4360695;32;34617;-83
2023/09/24 06:56:28;;;;;;;6.87;5.90;;;;;;;18.56;76.32;99248.59;4360585;32;33776;-84
2023/09/24 06:58:56;;;;;;;6.47;5.78;;;;;;;18.59;76.21;99252.03;4360595;32;33428;-83
2023/09/24 07:01:25;;;;;;;9.80;5.43;;;;;;;18.69;75.70;99247.47;4352428;32;33508;-83
2023/09/24 07:03:53;;;;;;;6.65;5.75;;;;;;;18.78;75.66;99254.34;4358381;32;35165;-81
2023/09/24 07:06:21;;;;;;;6.12;4.18;;;;;;;18.92;75.19;99255.81;4351721;32;34116;-83
2023/09/24 07:08:50;;;;;;;6.97;4.35;;;;;;;18.71;76.03;99256.22;4345457;32;33815;-82
2023/09/24 07:11:24;;;;;;;6.32;4.80;;;;;;;18.60;76.00;99264.28;4368735;32;33598;-84
2023/09/24 07:13:52;;;;;;;6.03;4.07;;;;;;;18.48;76.66;99262.72;4348285;32;34950;-84
2023/09/24 07:16:24;;;;;;;5.60;3.90;;;;;;;18.58;76.39;99263.44;4357534;32;34215;-84
2023/09/24 07:18:52;;;;;;;5.37;4.35;;;;;;;18.81;75.54;99264.78;4357499;32;32953;-84
2023/09/24 07:21:22;;;;;;;5.20;3.25;;;;;;;18.60;76.76;99266.00;4351927;32;33894;-84
2023/09/24 07:24:02;;;;;;;5.28;3.25;;;;;;;18.69;76.32;99261.47;4358513;32;34854;-85
2023/09/24 07:26:31;;;;;;;4.53;3.28;;;;;;;18.86;75.76;99266.44;4356678;32;33854;-85
2023/09/24 07:29:00;;;;;;;5.18;3.25;;;;;;;18.86;75.75;99270.81;4359808;32;33682;-85
2023/09/24 07:31:28;;;;;;;4.95;3.45;;;;;;;18.81;76.11;99268.28;4355800;32;34976;-83
2023/09/24 07:34:00;;;;;;;4.85;3.60;;;;;;;18.62;76.57;99270.34;4345607;32;33496;-82
2023/09/24 07:36:30;;;;;;;5.25;3.72;;;;;;;18.76;76.32;99279.78;4343673;33;33977;-82
2023/09/24 07:39:08;;;;;;;5.05;3.20;;;;;;;18.87;75.83;99272.56;4348169;32;34689;-82
2023/09/24 07:41:36;;;;;;;5.00;3.10;;;;;;;18.82;75.97;99270.00;4352197;32;33220;-81
2023/09/24 07:44:04;;;;;;;4.60;3.20;;;;;;;18.60;76.88;99276.50;4349335;32;34725;-81
2023/09/24 07:46:32;;;;;;;5.90;3.62;;;;;;;18.84;75.97;99268.22;4355210;32;34519;-82
2023/09/24 07:49:03;;;;;;;5.00;3.08;;;;;;;18.50;78.02;99282.84;4343886;32;33240;-81
2023/09/24 07:51:31;;;;;;;6.10;3.30;;;;;;;18.99;75.49;99279.34;4357065;32;33300;-83
2023/09/24 07:54:00;;;;;;;4.97;2.87;;;;;;;18.64;77.05;99284.34;4346043;32;33979;-83
2023/09/24 07:56:27;;;;;;;3.92;2.45;;;;;;;18.66;77.14;99281.66;4353310;32;34157;-85
2023/09/24 07:58:56;;;;;;;4.45;2.80;;;;;;;18.91;75.70;99282.13;4355790;32;34559;-81
2023/09/24 08:01:24;;;;;;;5.03;2.15;;;;;;;18.41;78.18;99287.38;4359440;32;34664;-81
2023/09/24 08:03:52;;;;;;;4.28;2.35;;;;;;;18.38;78.70;99290.03;4359574;32;32743;-81
2023/09/24 08:06:20;;;;;;;3.30;2.00;;;;;;;18.12;80.23;99305.34;4358936;32;34910;-87
2023/09/24 08:08:47;;;;;;;4.03;1.58;;;;;;;18.40;78.82;99293.47;4354756;32;34347;-81
2023/09/24 08:11:32;;;;;;;2.83;1.60;;;;;;;18.31;79.01;99301.53;4364825;32;34889;-84
2023/09/24 08:14:01;;;;;;;2.83;1.27;;;;;;;18.41;78.26;99291.72;4346210;32;34920;-81
2023/09/24 08:16:29;;;;;;;2.65;1.20;;;;;;;18.48;77.81;99288.97;4357665;32;34345;-85
2023/09/24 08:18:57;;;;;;;4.03;1.23;;;;;;;18.26;79.40;99298.13;4356637;32;33791;-82
2023/09/24 08:21:28;;;;;;;1.90;0.85;;;;;;;17.75;82.15;99308.50;4346548;32;33582;-81
2023/09/24 08:23:57;;;;;;;2.95;0.90;;;;;;;17.85;81.57;99304.88;4355870;32;34002;-83
2023/09/24 08:26:26;;;;;;;2.28;1.10;;;;;;;17.86;81.74;99306.59;4345750;32;35100;-81
2023/09/24 08:28:53;;;;;;;2.40;0.90;;;;;;;17.82;81.97;99311.91;4358039;32;33970;-82
2023/09/24 08:31:25;;;;;;;2.10;0.80;;;;;;;17.68;81.47;99304.19;4355341;32;34652;-81
2023/09/24 08:33:53;;;;;;;1.60;0.80;;;;;;;17.94;80.97;99311.72;4347573;32;34288;-84
2023/09/24 08:36:21;;;;;;;2.67;1.10;;;;;;;18.02;80.46;99304.59;4358366;32;33988;-82
2023/09/24 08:38:49;;;;;;;2.50;0.80;;;;;;;17.85;80.03;99311.88;4357819;32;33964;-82
2023/09/24 08:41:16;;;;;;;3.62;1.20;;;;;;;18.02;79.57;99309.84;4360798;32;34616;-82
2023/09/24 08:43:44;;;;;;;2.12;0.98;;;;;;;18.45;78.03;99303.94;4361581;32;33875;-82
2023/09/24 08:46:12;;;;;;;4.00;1.25;;;;;;;17.95;78.08;99319.56;4359690;32;35027;-82
2023/09/24 08:48:40;;;;;;;2.78;1.08;;;;;;;17.74;79.23;99325.97;4353041;32;33338;-85
2023/09/24 08:51:12;;;;;;;3.50;1.40;;;;;;;17.80;79.07;99324.16;4346279;33;34780;-87
2023/09/24 08:53:40;;;;;;;3.12;1.12;;;;;;;18.33;76.62;99314.63;4346966;32;33905;-85
2023/09/24 08:56:08;;;;;;;3.03;1.10;;;;;;;18.36;75.91;99317.19;4351386;32;34204;-84
2023/09/24 08:58:40;;;;;;;2.45;1.35;;;;;;;17.73;79.87;99324.22;4347766;32;32051;-84
2023/09/24 09:01:09;;;;;;;2.37;1.20;;;;;;;17.90;78.87;99323.16;4360937;32;33508;-87
2023/09/24 09:03:37;;;;;;;3.03;1.23;;;;;;;18.07;76.83;99329.03;4361213;32;34678;-84
2023/09/24 09:06:05;;;;;;;2.45;1.15;;;;;;;18.01;76.76;99328.25;4356295;32;34838;-84
2023/09/24 09:08:52;;;;;;;4.62;1.15;;;;;;;18.24;76.77;99334.88;4356823;32;33225;-85
2023/09/24 09:11:37;;;;;;;2.15;1.17;;;;;;;17.80;78.06;99330.28;4346111;33;34297;-85
2023/09/24 09:14:04;;;;;;;3.05;1.20;;;;;;;17.94;77.05;99325.69;4346051;33;33748;-86
2023/09/24 09:16:39;;;;;;;4.28;1.50;;;;;;;17.72;78.49;99332.09;4344881;33;33752;-85
2023/09/24 09:19:06;;;;;;;3.00;1.10;;;;;;;18.01;77.65;99333.50;4348947;32;33957;-84
2023/09/24 09:21:34;;;;;;;2.12;1.30;;;;;;;17.93;78.14;99328.34;4356961;32;33859;-85
2023/09/24 09:24:03;;;;;;;3.83;1.45;;;;;;;17.54;79.75;99337.59;4354826;32;34164;-86
2023/09/24 09:26:33;;;;;;;3.60;1.20;;;;;;;17.72;78.49;99342.59;4344877;33;33893;-85
2023/09/24 09:29:04;;;;;;;3.05;1.40;;;;;;;17.78;78.43;99337.31;4346549;32;35014;-85
2023/09/24 09:31:47;;;;;;;2.92;1.50;;;;;;;17.87;77.03;99346.78;4351241;32;34820;-85
2023/09/24 09:34:15;;;;;;;3.80;1.70;;;;;;;17.47;79.33;99342.91;4351301;32;33897;-85
2023/09/24 09:36:42;;;;;;;2.45;1.40;;;;;;;17.39;80.24;99350.00;4346537;32;34356;-85
2023/09/24 09:39:10;;;;;;;2.50;1.42;;;;;;;17.46;79.72;99356.91;4349192;32;33339;-84
2023/09/24 09:41:40;;;;;;;2.42;1.40;;;;;;;17.65;78.82;99351.41;4361031;32;34032;-84
2023/09/24 09:44:09;;;;;;;2.45;1.40;;;;;;;17.63;78.54;99359.31;4360673;32;33777;-85
2023/09/24 09:46:43;;;;;;;3.30;1.67;;;;;;;17.81;77.65;99363.50;4360748;32;34507;-83
2023/09/24 09:49:12;;;;;;;2.70;1.50;;;;;;;17.30;80.27;99352.72;4360136;32;33644;-84
2023/09/24 09:51:43;;;;;;;3.50;1.42;;;;;;;17.57;78.71;99359.38;4359698;32;33983;-85
2023/09/24 09:54:11;;;;;;;2.17;1.37;;;;;;;17.36;79.84;99357.91;4345336;33;34566;-86
2023/09/24 09:56:38;;;;;;;3.10;1.60;;;;;;;17.55;79.17;99365.56;4356478;32;34974;-85
2023/09/24 09:59:07;;;;;;;2.53;1.40;;;;;;;17.78;78.47;99370.53;4347181;32;34626;-84
2023/09/24 10:01:35;;;;;;;2.72;1.42;;;;;;;17.57;79.13;99369.00;4353027;32;33750;-84
2023/09/24 10:04:05;;;;;;;3.47;1.52;;;;;;;17.63;78.81;99374.19;4344935;33;33961;-84
2023/09/24 10:06:35;;;;;;;2.40;1.27;;;;;;;17.47;80.21;99377.00;4344815;33;34809;-85
2023/09/24 10:09:31;;;;;;;2.62;1.30;;;;;;;17.46;79.97;99383.13;4345965;33;33699;-86
2023/09/24 10:12:00;;;;;;;2.90;1.33;;;;;;;17.92;77.19;99385.19;4354024;32;34244;-85
2023/09/24 10:14:38;;;;;;;3.87;1.20;;;;;;;17.82;77.74;99378.34;4360712;32;34214;-84
2023/09/24 10:17:15;;;;;;;3.17;1.27;;;;;;;17.83;77.58;99380.06;4359477;32;33841;-84
2023/09/24 10:20:08;;;;;;;3.55;1.25;;;;;;;17.60;78.50;99385.56;4360524;32;34128;-84
2023/09/24 10:22:40;;;;;;;3.75;1.27;;;;;;;17.34;79.97;99383.25;4348235;32;33515;-85
2023/09/24 10:25:37;;;;;;;2.33;1.30;;;;;;;17.39;78.90;99376.22;4345516;33;34634;-85
2023/09/24 10:28:06;;;;;;;2.75;1.35;;;;;;;17.50;79.20;99382.22;4351808;32;34358;-84
2023/09/24 10:31:04;;;;;;;3.92;0.98;;;;;;;17.94;76.86;99390.41;4363376;32;34430;-85
2023/09/24 10:33:59;;;;;;;1.73;1.15;;;;;;;18.08;76.08;99393.72;4334962;32;32551;-84
2023/09/24 10:36:33;;;;;;;2.47;1.50;;;;;;;17.67;78.49;99391.63;4343969;32;32705;-86
2023/09/24 10:39:13;;;;;;;3.58;1.60;;;;;;;17.71;78.23;99393.31;4345625;32;34819;-84
2023/09/24 10:42:09;;;;;;;3.90;1.40;;;;;;;17.78;77.75;99395.00;4359386;32;32907;-86
2023/09/24 10:44:37;;;;;;;2.17;1.23;;;;;;;17.95;77.74;99385.13;4360528;32;33983;-84
2023/09/24 10:47:28;;;;;;;2.80;1.37;;;;;;;17.77;77.76;99398.53;4354865;32;35013;-84
2023/09/24 10:50:11;;;;;;;2.65;1.30;;;;;;;17.95;77.57;99393.00;4358523;32;33837;-83
2023/09/24 10:53:01;;;;;;;3.22;1.40;;;;;;;17.45;80.31;99399.72;4367047;32;33690;-83
2023/09/24 10:55:29;;;;;;;3.15;1.12;;;;;;;17.64;79.17;99395.12;4359307;32;34005;-84
2023/09/24 10:58:18;;;;;;;2.55;1.40;;;;;;;17.87;76.99;99394.00;4358852;32;34042;-84
2023/09/24 11:00:52;;;;;;;3.30;1.27;;;;;;;17.84;77.38;99400.19;4356839;32;34229;-83
2023/09/24 11:03:19;;;;;;;2.30;1.30;;;;;;;17.39;79.79;99386.72;4357309;32;33247;-85
2023/09/24 11:05:48;;;;;;;3.78;1.20;;;;;;;17.58;78.26;99391.72;4358186;32;34629;-86
2023/09/24 11:08:18;;;;;;;2.78;1.23;;;;;;;17.82;76.90;99388.81;4355310;32;34279;-82
2023/09/24 11:10:48;;;;;;;3.50;1.20;;;;;;;17.74;75.65;99393.28;4360281;32;34317;-83
2023/09/24 11:13:16;;;;;;;4.05;1.20;;;;;;;17.75;76.74;99397.66;4348538;32;33605;-85
2023/09/24 11:15:44;;;;;;;3.12;1.10;;;;;;;17.61;78.10;99402.16;4351883;32;33502;-84
2023/09/24 11:18:13;;;;;;;4.07;1.00;;;;;;;17.33;80.21;99394.62;4358038;32;34115;-84
2023/09/24 11:20:51;;;;;;;3.08;1.15;;;;;;;17.56;77.38;99396.12;4359566;32;35024;-85
2023/09/24 11:23:19;;;;;;;4.35;1.35;;;;;;;17.35;79.16;99405.06;4355899;32;33695;-85
2023/09/24 11:25:48;;;;;;;4.18;1.30;;;;;;;17.45;79.21;99404.09;4346795;32;34646;-85
2023/09/24 11:28:16;;;;;;;2.17;1.23;;;;;;;17.47;78.75;99400.59;4346952;32;33846;-86
2023/09/24 11:30:47;;;;;;;3.83;1.08;;;;;;;17.72;77.48;99405.53;4345232;33;34011;-85
2023/09/24 11:33:17;;;;;;;2.15;0.95;;;;;;;17.62;77.08;99415.28;4345505;32;34254;-86
2023/09/24 11:35:46;;;;;;;1.95;0.90;;;;;;;17.58;77.55;99417.91;4344058;33;33752;-85
2023/09/24 11:38:26;;;;;;;1.60;0.90;;;;;;;17.63;76.83;99417.00;4345192;33;34199;-85
2023/09/24 11:41:11;;;;;;;2.05;0.98;;;;;;;17.57;77.10;99421.44;4345012;33;34158;-85